DLH55R EDDS-EDDH
Flight info
| Callsign | DLH55R |
|---|---|
| Flight time | 0h 56m |
| Altitude | 37000 |
| Route | OKIBA4H/07 OKIBA N851 RIMKI Z99 LOHRE DCT MASEK DCT ELNAT P605 NOLGO NOLGO3P |
| Aircraft | A320/M-SDE3FGHIRWY/LB1 |
Departure
| Time | 2026-04-26 20:25 |
|---|---|
| Airport | Stuttgart Airport (EDDS) |
Arrival
| Time | 2026-04-26 21:22 |
|---|---|
| Airport | Hamburg Helmut Schmidt Airport (EDDH) |
| Time | Latitude | Longitude | Altitude | Speed | Heading |
|---|---|---|---|---|---|
| 2026-04-26 19:35 | 48.68870 | 9.19288 | 1315 ft | 0 kts | 344° |
| 2026-04-26 20:17 | 48.68858 | 9.19293 | 1315 ft | 4 kts | 344° |
| 2026-04-26 20:17 | 48.68832 | 9.19304 | 1315 ft | 3 kts | 344° |
| 2026-04-26 20:17 | 48.68812 | 9.19311 | 1315 ft | 4 kts | 8° |
| 2026-04-26 20:18 | 48.68792 | 9.19294 | 1315 ft | 4 kts | 63° |
| 2026-04-26 20:18 | 48.68787 | 9.19277 | 1315 ft | 0 kts | 74° |
| 2026-04-26 20:22 | 48.68793 | 9.19307 | 1314 ft | 11 kts | 74° |
| 2026-04-26 20:22 | 48.68819 | 9.19446 | 1312 ft | 16 kts | 74° |
| 2026-04-26 20:22 | 48.68853 | 9.19626 | 1309 ft | 20 kts | 74° |
| 2026-04-26 20:23 | 48.68888 | 9.19812 | 1304 ft | 12 kts | 74° |
| 2026-04-26 20:23 | 48.68847 | 9.19892 | 1300 ft | 10 kts | 164° |
| 2026-04-26 20:23 | 48.68773 | 9.19950 | 1294 ft | 14 kts | 160° |
| 2026-04-26 20:23 | 48.68690 | 9.19984 | 1289 ft | 10 kts | 163° |
| 2026-04-26 20:24 | 48.68673 | 9.19991 | 1288 ft | 0 kts | 163° |
| 2026-04-26 20:24 | 48.68668 | 9.19994 | 1288 ft | 3 kts | 163° |
| 2026-04-26 20:24 | 48.68614 | 9.20035 | 1284 ft | 13 kts | 139° |
| 2026-04-26 20:24 | 48.68605 | 9.20180 | 1283 ft | 18 kts | 72° |
| 2026-04-26 20:25 | 48.68692 | 9.20631 | 1271 ft | 82 kts | 74° |
| 2026-04-26 20:25 | 48.68825 | 9.21339 | 1259 ft | 127 kts | 74° |
| 2026-04-26 20:25 | 48.69216 | 9.23432 | 1688 ft | 162 kts | 75° |
| 2026-04-26 20:25 | 48.69493 | 9.25075 | 2487 ft | 162 kts | 75° |
| 2026-04-26 20:26 | 48.69806 | 9.26800 | 2873 ft | 184 kts | 74° |
| 2026-04-26 20:26 | 48.70185 | 9.28804 | 3234 ft | 207 kts | 74° |
| 2026-04-26 20:26 | 48.70603 | 9.30988 | 3653 ft | 226 kts | 74° |
| 2026-04-26 20:26 | 48.71057 | 9.33356 | 4361 ft | 238 kts | 74° |
| 2026-04-26 20:27 | 48.71524 | 9.35795 | 5210 ft | 244 kts | 73° |
| 2026-04-26 20:27 | 48.72008 | 9.38321 | 5866 ft | 260 kts | 73° |
| 2026-04-26 20:27 | 48.72529 | 9.41032 | 6585 ft | 274 kts | 72° |
| 2026-04-26 20:27 | 48.73067 | 9.43843 | 7444 ft | 280 kts | 72° |
| 2026-04-26 20:28 | 48.73616 | 9.46705 | 8355 ft | 285 kts | 71° |
| 2026-04-26 20:28 | 48.74502 | 9.49354 | 9229 ft | 288 kts | 49° |
| 2026-04-26 20:28 | 48.75992 | 9.51359 | 10141 ft | 288 kts | 27° |
| 2026-04-26 20:28 | 48.77885 | 9.52455 | 10694 ft | 301 kts | 7° |
| 2026-04-26 20:29 | 48.80044 | 9.52464 | 11082 ft | 319 kts | 353° |
| 2026-04-26 20:29 | 48.82296 | 9.52181 | 11803 ft | 327 kts | 353° |
| 2026-04-26 20:29 | 48.84557 | 9.51900 | 12626 ft | 332 kts | 354° |
| 2026-04-26 20:29 | 48.86856 | 9.51622 | 13632 ft | 326 kts | 354° |
| 2026-04-26 20:30 | 48.89052 | 9.51368 | 15095 ft | 305 kts | 354° |
| 2026-04-26 20:30 | 48.91123 | 9.51136 | 16280 ft | 299 kts | 354° |
| 2026-04-26 20:30 | 48.93273 | 9.50894 | 16570 ft | 321 kts | 354° |
| 2026-04-26 20:30 | 48.95548 | 9.50319 | 16735 ft | 341 kts | 344° |
| 2026-04-26 20:31 | 48.97810 | 9.49028 | 17208 ft | 351 kts | 334° |
| 2026-04-26 20:31 | 49.00026 | 9.47387 | 17879 ft | 356 kts | 334° |
| 2026-04-26 20:31 | 49.02265 | 9.45741 | 18562 ft | 359 kts | 334° |
| 2026-04-26 20:31 | 49.04506 | 9.44102 | 19164 ft | 363 kts | 334° |
| 2026-04-26 20:32 | 49.06789 | 9.42437 | 19787 ft | 365 kts | 334° |
| 2026-04-26 20:32 | 49.09091 | 9.40752 | 20427 ft | 367 kts | 334° |
| 2026-04-26 20:32 | 49.11408 | 9.39052 | 21063 ft | 369 kts | 334° |
| 2026-04-26 20:32 | 49.13731 | 9.37342 | 21664 ft | 371 kts | 334° |
| 2026-04-26 20:33 | 49.16070 | 9.35613 | 22270 ft | 374 kts | 334° |
| 2026-04-26 20:33 | 49.18392 | 9.33893 | 22875 ft | 376 kts | 334° |
| 2026-04-26 20:33 | 49.20816 | 9.32349 | 23449 ft | 378 kts | 342° |
| 2026-04-26 20:33 | 49.23401 | 9.31497 | 24011 ft | 381 kts | 352° |
| 2026-04-26 20:34 | 49.26037 | 9.31256 | 24488 ft | 384 kts | 355° |
| 2026-04-26 20:34 | 49.28722 | 9.31064 | 24965 ft | 385 kts | 355° |
| 2026-04-26 20:34 | 49.31408 | 9.30862 | 25434 ft | 387 kts | 355° |
| 2026-04-26 20:34 | 49.34115 | 9.30652 | 25898 ft | 389 kts | 355° |
| 2026-04-26 20:35 | 49.36806 | 9.30738 | 26336 ft | 393 kts | 3° |
| 2026-04-26 20:35 | 49.39540 | 9.31134 | 26791 ft | 395 kts | 3° |
| 2026-04-26 20:35 | 49.42288 | 9.31535 | 27233 ft | 397 kts | 3° |
| 2026-04-26 20:35 | 49.45058 | 9.31944 | 27678 ft | 399 kts | 3° |
| 2026-04-26 20:36 | 49.47799 | 9.32352 | 28111 ft | 401 kts | 3° |
| 2026-04-26 20:36 | 49.50591 | 9.32768 | 28548 ft | 403 kts | 3° |
| 2026-04-26 20:36 | 49.53400 | 9.33188 | 28980 ft | 405 kts | 3° |
| 2026-04-26 20:36 | 49.56219 | 9.33612 | 29401 ft | 407 kts | 3° |
| 2026-04-26 20:37 | 49.59017 | 9.34030 | 29810 ft | 409 kts | 3° |
| 2026-04-26 20:37 | 49.61868 | 9.34455 | 30223 ft | 411 kts | 3° |
| 2026-04-26 20:37 | 49.64725 | 9.34881 | 30566 ft | 413 kts | 3° |
| 2026-04-26 20:37 | 49.67601 | 9.35307 | 30868 ft | 415 kts | 3° |
| 2026-04-26 20:38 | 49.70488 | 9.35730 | 31167 ft | 417 kts | 3° |
| 2026-04-26 20:38 | 49.73389 | 9.36157 | 31466 ft | 419 kts | 3° |
| 2026-04-26 20:38 | 49.76283 | 9.36903 | 31749 ft | 424 kts | 11° |
| 2026-04-26 20:38 | 49.79123 | 9.38005 | 32071 ft | 425 kts | 11° |
| 2026-04-26 20:39 | 49.81999 | 9.39118 | 32501 ft | 424 kts | 11° |
| 2026-04-26 20:39 | 49.83910 | 9.39856 | 32775 ft | 424 kts | 11° |
| 2026-04-26 20:39 | 49.87741 | 9.41328 | 33341 ft | 422 kts | 10° |
| 2026-04-26 20:39 | 49.90557 | 9.42407 | 33755 ft | 421 kts | 10° |
| 2026-04-26 20:40 | 49.93404 | 9.43500 | 34175 ft | 420 kts | 10° |
| 2026-04-26 20:40 | 49.96247 | 9.44598 | 34551 ft | 420 kts | 11° |
| 2026-04-26 20:40 | 49.99077 | 9.45694 | 34886 ft | 419 kts | 10° |
| 2026-04-26 20:40 | 50.01918 | 9.46789 | 35215 ft | 419 kts | 10° |
| 2026-04-26 20:41 | 50.04758 | 9.47883 | 35556 ft | 419 kts | 10° |
| 2026-04-26 20:41 | 50.07565 | 9.48777 | 35865 ft | 415 kts | 4° |
| 2026-04-26 20:41 | 50.10443 | 9.49270 | 36151 ft | 415 kts | 3° |
| 2026-04-26 20:41 | 50.13313 | 9.49748 | 36441 ft | 414 kts | 3° |
| 2026-04-26 20:42 | 50.16180 | 9.50223 | 36736 ft | 414 kts | 3° |
| 2026-04-26 20:42 | 50.19050 | 9.50699 | 37019 ft | 414 kts | 3° |
| 2026-04-26 20:42 | 50.21920 | 9.51177 | 37220 ft | 415 kts | 3° |
| 2026-04-26 20:43 | 50.27638 | 9.52148 | 37269 ft | 412 kts | 3° |
| 2026-04-26 20:43 | 50.33300 | 9.53106 | 37263 ft | 411 kts | 3° |
| 2026-04-26 20:44 | 50.38993 | 9.54069 | 37263 ft | 410 kts | 3° |
| 2026-04-26 20:44 | 50.44680 | 9.55025 | 37269 ft | 410 kts | 3° |
| 2026-04-26 20:45 | 50.50326 | 9.55974 | 37284 ft | 410 kts | 3° |
| 2026-04-26 20:45 | 50.56019 | 9.56948 | 37275 ft | 411 kts | 3° |
| 2026-04-26 20:46 | 50.61671 | 9.57909 | 37276 ft | 411 kts | 2° |
| 2026-04-26 20:46 | 50.67357 | 9.58871 | 37275 ft | 411 kts | 3° |
| 2026-04-26 20:47 | 50.73052 | 9.59862 | 37268 ft | 411 kts | 3° |
| 2026-04-26 20:47 | 50.78710 | 9.60913 | 37271 ft | 411 kts | 4° |
| 2026-04-26 20:48 | 50.84402 | 9.62043 | 37276 ft | 412 kts | 4° |
| 2026-04-26 20:48 | 50.90093 | 9.63167 | 37275 ft | 412 kts | 4° |
| 2026-04-26 20:49 | 50.95784 | 9.64276 | 37283 ft | 412 kts | 4° |
| 2026-04-26 20:49 | 51.01478 | 9.65388 | 37280 ft | 412 kts | 4° |
| 2026-04-26 20:50 | 51.07132 | 9.66494 | 37280 ft | 411 kts | 4° |
| 2026-04-26 20:50 | 51.12823 | 9.67606 | 37281 ft | 411 kts | 3° |
| 2026-04-26 20:51 | 51.18472 | 9.68709 | 37293 ft | 411 kts | 3° |
| 2026-04-26 20:51 | 51.24158 | 9.69773 | 37285 ft | 410 kts | 2° |
| 2026-04-26 20:52 | 51.29846 | 9.70676 | 37282 ft | 410 kts | 2° |
| 2026-04-26 20:52 | 51.35499 | 9.71543 | 37285 ft | 410 kts | 2° |
| 2026-04-26 20:53 | 51.41180 | 9.72450 | 37294 ft | 410 kts | 2° |
| 2026-04-26 20:53 | 51.46867 | 9.73390 | 37293 ft | 410 kts | 2° |
| 2026-04-26 20:54 | 51.52511 | 9.74399 | 37287 ft | 411 kts | 3° |
| 2026-04-26 20:54 | 51.58202 | 9.75502 | 37283 ft | 411 kts | 3° |
| 2026-04-26 20:55 | 51.63885 | 9.76594 | 37285 ft | 411 kts | 3° |
| 2026-04-26 20:55 | 51.69546 | 9.77668 | 37294 ft | 411 kts | 3° |
| 2026-04-26 20:56 | 51.75233 | 9.78754 | 37288 ft | 411 kts | 3° |
| 2026-04-26 20:56 | 51.80898 | 9.79829 | 37290 ft | 411 kts | 3° |
| 2026-04-26 20:57 | 51.86560 | 9.80900 | 37291 ft | 411 kts | 3° |
| 2026-04-26 20:57 | 51.92254 | 9.82004 | 37307 ft | 411 kts | 3° |
| 2026-04-26 20:58 | 51.97938 | 9.83119 | 37300 ft | 411 kts | 3° |
| 2026-04-26 20:58 | 52.03630 | 9.84230 | 37296 ft | 411 kts | 3° |
| 2026-04-26 20:58 | 52.06442 | 9.84778 | 37145 ft | 412 kts | 3° |
| 2026-04-26 20:59 | 52.09296 | 9.85332 | 36870 ft | 411 kts | 3° |
| 2026-04-26 20:59 | 52.12136 | 9.85883 | 36608 ft | 411 kts | 2° |
| 2026-04-26 20:59 | 52.14993 | 9.86439 | 35862 ft | 414 kts | 2° |
| 2026-04-26 20:59 | 52.17860 | 9.86999 | 35048 ft | 417 kts | 2° |
| 2026-04-26 21:00 | 52.20749 | 9.87567 | 34420 ft | 416 kts | 2° |
| 2026-04-26 21:00 | 52.22643 | 9.87943 | 34058 ft | 412 kts | 2° |
| 2026-04-26 21:00 | 52.26378 | 9.88989 | 33297 ft | 411 kts | 10° |
| 2026-04-26 21:00 | 52.29128 | 9.90162 | 32827 ft | 403 kts | 6° |
| 2026-04-26 21:01 | 52.31826 | 9.91045 | 32729 ft | 387 kts | 5° |
| 2026-04-26 21:01 | 52.36200 | 9.92358 | 32274 ft | 391 kts | 5° |
| 2026-04-26 21:01 | 52.38895 | 9.93126 | 31888 ft | 394 kts | 5° |
| 2026-04-26 21:02 | 52.41612 | 9.93899 | 31505 ft | 394 kts | 5° |
| 2026-04-26 21:02 | 52.44311 | 9.94678 | 31129 ft | 392 kts | 5° |
| 2026-04-26 21:02 | 52.46992 | 9.95470 | 30760 ft | 390 kts | 5° |
| 2026-04-26 21:02 | 52.49659 | 9.96269 | 30394 ft | 388 kts | 5° |
| 2026-04-26 21:03 | 52.52280 | 9.97058 | 29974 ft | 386 kts | 5° |
| 2026-04-26 21:03 | 52.54922 | 9.97853 | 29546 ft | 384 kts | 5° |
| 2026-04-26 21:03 | 52.57549 | 9.98641 | 29086 ft | 383 kts | 5° |
| 2026-04-26 21:03 | 52.60183 | 9.99432 | 28605 ft | 382 kts | 5° |
| 2026-04-26 21:04 | 52.62785 | 10.00217 | 28117 ft | 378 kts | 6° |
| 2026-04-26 21:04 | 52.65374 | 10.00992 | 27635 ft | 394 kts | 6° |
| 2026-04-26 21:04 | 52.68161 | 10.01806 | 26970 ft | 417 kts | 6° |
| 2026-04-26 21:04 | 52.71109 | 10.02666 | 26268 ft | 437 kts | 6° |
| 2026-04-26 21:05 | 52.74120 | 10.03561 | 25617 ft | 440 kts | 7° |
| 2026-04-26 21:05 | 52.77133 | 10.04473 | 24984 ft | 438 kts | 7° |
| 2026-04-26 21:05 | 52.80124 | 10.05392 | 24367 ft | 436 kts | 7° |
| 2026-04-26 21:05 | 52.83093 | 10.06310 | 23763 ft | 433 kts | 7° |
| 2026-04-26 21:06 | 52.86044 | 10.07221 | 23040 ft | 428 kts | 7° |
| 2026-04-26 21:06 | 52.88925 | 10.08102 | 22347 ft | 424 kts | 7° |
| 2026-04-26 21:06 | 52.91816 | 10.08984 | 21653 ft | 420 kts | 7° |
| 2026-04-26 21:06 | 52.94753 | 10.09872 | 20927 ft | 434 kts | 7° |
| 2026-04-26 21:07 | 52.97731 | 10.10768 | 20220 ft | 434 kts | 7° |
| 2026-04-26 21:07 | 53.00696 | 10.11665 | 19534 ft | 431 kts | 7° |
| 2026-04-26 21:07 | 53.03635 | 10.12560 | 18869 ft | 427 kts | 7° |
| 2026-04-26 21:07 | 53.06553 | 10.13455 | 18299 ft | 424 kts | 7° |
| 2026-04-26 21:08 | 53.09418 | 10.14337 | 17764 ft | 421 kts | 8° |
| 2026-04-26 21:08 | 53.12291 | 10.15222 | 17234 ft | 417 kts | 8° |
| 2026-04-26 21:08 | 53.15125 | 10.16097 | 16656 ft | 411 kts | 8° |
| 2026-04-26 21:08 | 53.17943 | 10.16967 | 16397 ft | 412 kts | 8° |
| 2026-04-26 21:09 | 53.20760 | 10.17838 | 16144 ft | 410 kts | 8° |
| 2026-04-26 21:09 | 53.23565 | 10.18706 | 15892 ft | 409 kts | 8° |
| 2026-04-26 21:09 | 53.26356 | 10.19566 | 15641 ft | 407 kts | 8° |
| 2026-04-26 21:09 | 53.29143 | 10.20424 | 15393 ft | 406 kts | 8° |
| 2026-04-26 21:10 | 53.31917 | 10.21278 | 15158 ft | 404 kts | 8° |
| 2026-04-26 21:10 | 53.34645 | 10.22119 | 14914 ft | 402 kts | 8° |
| 2026-04-26 21:10 | 53.37346 | 10.22963 | 14736 ft | 384 kts | 8° |
| 2026-04-26 21:10 | 53.39910 | 10.23772 | 14613 ft | 366 kts | 8° |
| 2026-04-26 21:11 | 53.42369 | 10.24545 | 14426 ft | 352 kts | 8° |
| 2026-04-26 21:11 | 53.44731 | 10.25280 | 14163 ft | 334 kts | 7° |
| 2026-04-26 21:11 | 53.46955 | 10.25970 | 13393 ft | 325 kts | 7° |
| 2026-04-26 21:11 | 53.49160 | 10.26654 | 12745 ft | 314 kts | 8° |
| 2026-04-26 21:12 | 53.51220 | 10.27296 | 12613 ft | 289 kts | 7° |
| 2026-04-26 21:12 | 53.53134 | 10.27897 | 12483 ft | 268 kts | 7° |
| 2026-04-26 21:12 | 53.54910 | 10.28457 | 12302 ft | 251 kts | 7° |
| 2026-04-26 21:12 | 53.56612 | 10.28991 | 12058 ft | 247 kts | 6° |
| 2026-04-26 21:13 | 53.58289 | 10.29514 | 11688 ft | 248 kts | 7° |
| 2026-04-26 21:13 | 53.59995 | 10.30048 | 11314 ft | 249 kts | 7° |
| 2026-04-26 21:13 | 53.61709 | 10.30584 | 10898 ft | 249 kts | 7° |
| 2026-04-26 21:13 | 53.63373 | 10.31106 | 10464 ft | 243 kts | 7° |
| 2026-04-26 21:14 | 53.65017 | 10.31624 | 9996 ft | 238 kts | 7° |
| 2026-04-26 21:14 | 53.66631 | 10.32270 | 9503 ft | 238 kts | 18° |
| 2026-04-26 21:14 | 53.68135 | 10.33497 | 9037 ft | 239 kts | 24° |
| 2026-04-26 21:14 | 53.69605 | 10.34829 | 8571 ft | 239 kts | 24° |
| 2026-04-26 21:15 | 53.71047 | 10.36143 | 8083 ft | 239 kts | 24° |
| 2026-04-26 21:15 | 53.72548 | 10.37502 | 7535 ft | 250 kts | 24° |
| 2026-04-26 21:15 | 53.74127 | 10.38878 | 6985 ft | 256 kts | 20° |
| 2026-04-26 21:15 | 53.75862 | 10.39370 | 6425 ft | 255 kts | 351° |
| 2026-04-26 21:16 | 53.77506 | 10.38335 | 5854 ft | 255 kts | 322° |
| 2026-04-26 21:16 | 53.78618 | 10.36077 | 5297 ft | 257 kts | 294° |
| 2026-04-26 21:16 | 53.78925 | 10.33114 | 4834 ft | 256 kts | 264° |
| 2026-04-26 21:16 | 53.78410 | 10.30328 | 4673 ft | 245 kts | 240° |
| 2026-04-26 21:17 | 53.77388 | 10.28066 | 4380 ft | 240 kts | 231° |
| 2026-04-26 21:17 | 53.76331 | 10.25914 | 4057 ft | 235 kts | 232° |
| 2026-04-26 21:17 | 53.75332 | 10.23872 | 3756 ft | 223 kts | 231° |
| 2026-04-26 21:17 | 53.74357 | 10.21877 | 3458 ft | 218 kts | 231° |
| 2026-04-26 21:18 | 53.73391 | 10.19901 | 3155 ft | 218 kts | 231° |
| 2026-04-26 21:18 | 53.72430 | 10.17937 | 2849 ft | 213 kts | 231° |
| 2026-04-26 21:18 | 53.71504 | 10.16048 | 2563 ft | 204 kts | 231° |
| 2026-04-26 21:18 | 53.70616 | 10.14236 | 2288 ft | 195 kts | 232° |
| 2026-04-26 21:19 | 53.69788 | 10.12549 | 2057 ft | 182 kts | 232° |
| 2026-04-26 21:19 | 53.68989 | 10.10922 | 1795 ft | 178 kts | 232° |
| 2026-04-26 21:19 | 53.68216 | 10.09348 | 1537 ft | 166 kts | 233° |
| 2026-04-26 21:19 | 53.67528 | 10.07952 | 1319 ft | 146 kts | 233° |
| 2026-04-26 21:20 | 53.66904 | 10.06684 | 1109 ft | 136 kts | 233° |
| 2026-04-26 21:20 | 53.66303 | 10.05465 | 925 ft | 134 kts | 233° |
| 2026-04-26 21:20 | 53.65713 | 10.04264 | 745 ft | 132 kts | 232° |
| 2026-04-26 21:20 | 53.65126 | 10.03070 | 591 ft | 132 kts | 233° |
| 2026-04-26 21:21 | 53.64539 | 10.01870 | 400 ft | 133 kts | 232° |
| 2026-04-26 21:21 | 53.63957 | 10.00687 | 221 ft | 131 kts | 233° |
| 2026-04-26 21:21 | 53.63375 | 9.99507 | 53 ft | 128 kts | 232° |
| 2026-04-26 21:21 | 53.62890 | 9.98529 | 49 ft | 84 kts | 229° |
| 2026-04-26 21:22 | 53.62627 | 9.97991 | 48 ft | 35 kts | 230° |
| 2026-04-26 21:22 | 53.62518 | 9.97793 | 47 ft | 15 kts | 210° |
| 2026-04-26 21:22 | 53.62451 | 9.97814 | 48 ft | 8 kts | 140° |
| 2026-04-26 21:23 | 53.62432 | 9.97944 | 50 ft | 5 kts | 79° |
| 2026-04-26 21:23 | 53.62433 | 9.97949 | 50 ft | 0 kts | 79° |
| 2026-04-26 21:23 | 53.62433 | 9.97950 | 50 ft | 1 kts | 79° |
| 2026-04-26 21:23 | 53.62461 | 9.98091 | 49 ft | 18 kts | 59° |
| 2026-04-26 21:24 | 53.62550 | 9.98269 | 51 ft | 21 kts | 50° |
| 2026-04-26 21:24 | 53.62650 | 9.98470 | 51 ft | 22 kts | 50° |
| 2026-04-26 21:24 | 53.62733 | 9.98639 | 51 ft | 20 kts | 50° |
| 2026-04-26 21:24 | 53.62828 | 9.98831 | 50 ft | 23 kts | 50° |
| 2026-04-26 21:25 | 53.62920 | 9.99018 | 50 ft | 19 kts | 50° |
| 2026-04-26 21:25 | 53.62996 | 9.99172 | 50 ft | 17 kts | 50° |
| 2026-04-26 21:25 | 53.63055 | 9.99294 | 50 ft | 11 kts | 51° |
| 2026-04-26 21:25 | 53.63097 | 9.99397 | 50 ft | 10 kts | 56° |
| 2026-04-26 21:26 | 53.63136 | 9.99492 | 50 ft | 10 kts | 55° |
| 2026-04-26 21:26 | 53.63179 | 9.99584 | 49 ft | 12 kts | 50° |
| 2026-04-26 21:26 | 53.63253 | 9.99721 | 50 ft | 17 kts | 44° |
| 2026-04-26 21:26 | 53.63339 | 9.99886 | 50 ft | 20 kts | 50° |
| 2026-04-26 21:27 | 53.63415 | 10.00038 | 51 ft | 7 kts | 50° |
| 2026-04-26 21:27 | 53.63430 | 10.00097 | 51 ft | 5 kts | 82° |
| 2026-04-26 21:27 | 53.63412 | 10.00167 | 51 ft | 6 kts | 124° |
| 2026-04-26 21:27 | 53.63380 | 10.00211 | 51 ft | 6 kts | 146° |
| 2026-04-26 21:28 | 53.63370 | 10.00267 | 51 ft | 5 kts | 85° |
| 2026-04-26 21:28 | 53.63372 | 10.00315 | 51 ft | 2 kts | 86° |
| 2026-04-26 21:28 | 53.63373 | 10.00330 | 51 ft | 0 kts | 86° |
| 2026-04-26 21:28 | 53.63373 | 10.00335 | 51 ft | 1 kts | 86° |
| 2026-04-26 21:29 | 53.63373 | 10.00337 | 51 ft | 0 kts | 86° |